Pagrindinis puslapis
METAR-TAF:

METAR-TAF

Oro uostai :

Piarko tarptautinis oro uostas

Port of Speinas, Trinidadas, Trinidadas ir Tobagas

platuma: 10-37N, ilguma: 061-21W, Aukštis: 12 m

Dabartinis oras

Ataskaita buvo paskelbta 26 minutes, ne 04:00 UTC
Vėjas 5 kt iš Rytų
Temperatūra 26°C
Drėgmė 84%
Slėgis 1015 hPa
Matomumas 10 km arba daugiau
Mažai debesys ne aukštis 1600 ft

METAR: TTPP 070400Z 10005KT 9999 FEW016 26/23 Q1015 NOSIG

Laikas: 00:26 (04:26 UTC)

Prognozė

Ataskaita buvo paskelbta 6 valandos ir 26 minutes, ne 22:00 UTC
Prognozė galioja nuo 07 metu 00 UTC su 07 metu 24 UTC
Vėjas 5 kt iš Rytų/Pietryčių
Matomumas 10 km arba daugiau
Mažai debesys ne aukštis 1600 ft
Tapsmas
nuo 07 metu 13 UTC su 07 metu 15 UTC
Vėjas 13 kt iš Rytų/Pietryčių
Išsisklaidę debesys ne aukštis 2300 ft

TAF: TTPP 062200Z 0700/0724 11005KT 9999 FEW016 BECMG 0713/0715 12013KT SCT023

Orai ataskaitas ir orų prognozės (METAR, TAF).

turimą stotys yra geltonos ir raudonos taškus žemėlapyje.

Perkelti pele per norėdami pamatyti stoties vardą.

Tada spustelėkite, norėdami matyti oro stebėjimo ir prognozės.

Norėdami pakeisti žemėlapį: spustelėkite ant žalios mygtukų su juodo kryžiaus žemyn,; žalią mygtuką su brūkšneliu, jei norite nutolinti; arba žalių rodyklių gretimoms žemėlapius.


METAR-TAF: